sensor_id;sensor_type;location;lat;lon;timestamp;noise_LAeq;noise_LA_min;noise_LA_max;noise_LA01;noise_LA95
37223;Laerm;28026;48.562;14.440;2023-11-21T00:01:49;38.29;32.35;59.55;;
37223;Laerm;28026;48.562;14.440;2023-11-21T00:04:20;39.04;31.68;64.23;;
37223;Laerm;28026;48.562;14.440;2023-11-21T00:06:52;37.24;30.89;59.55;;
37223;Laerm;28026;48.562;14.440;2023-11-21T00:09:23;37.33;30.89;57.55;;
37223;Laerm;28026;48.562;14.440;2023-11-21T00:11:54;41.30;33.90;53.55;;
37223;Laerm;28026;48.562;14.440;2023-11-21T00:14:25;37.60;31.68;58.62;;
37223;Laerm;28026;48.562;14.440;2023-11-21T00:16:56;37.24;32.35;53.27;;
37223;Laerm;28026;48.562;14.440;2023-11-21T00:19:27;37.51;30.89;56.93;;
37223;Laerm;28026;48.562;14.440;2023-11-21T00:21:57;37.16;30.89;55.19;;
37223;Laerm;28026;48.562;14.440;2023-11-21T00:24:28;37.05;30.89;59.82;;
37223;Laerm;28026;48.562;14.440;2023-11-21T00:26:59;36.97;30.89;53.56;;
37223;Laerm;28026;48.562;14.440;2023-11-21T00:29:30;37.00;31.68;53.89;;
37223;Laerm;28026;48.562;14.440;2023-11-21T00:32:01;37.00;31.68;59.29;;
37223;Laerm;28026;48.562;14.440;2023-11-21T00:34:32;36.92;31.68;50.73;;
37223;Laerm;28026;48.562;14.440;2023-11-21T00:37:03;37.15;31.68;59.05;;
37223;Laerm;28026;48.562;14.440;2023-11-21T00:39:34;37.46;31.68;54.34;;
37223;Laerm;28026;48.562;14.440;2023-11-21T00:42:06;38.91;32.93;55.61;;
37223;Laerm;28026;48.562;14.440;2023-11-21T00:44:38;37.36;30.89;61.20;;
37223;Laerm;28026;48.562;14.440;2023-11-21T00:47:10;38.18;30.89;56.44;;
37223;Laerm;28026;48.562;14.440;2023-11-21T00:49:41;37.48;31.68;57.00;;
37223;Laerm;28026;48.562;14.440;2023-11-21T00:52:12;38.90;31.68;66.19;;
37223;Laerm;28026;48.562;14.440;2023-11-21T00:54:43;37.10;29.92;60.57;;
37223;Laerm;28026;48.562;14.440;2023-11-21T00:57:14;37.23;31.68;50.91;;
37223;Laerm;28026;48.562;14.440;2023-11-21T00:59:45;38.22;32.35;57.26;;
37223;Laerm;28026;48.562;14.440;2023-11-21T01:02:15;36.88;30.89;51.68;;
37223;Laerm;28026;48.562;14.440;2023-11-21T01:04:46;36.98;29.92;51.03;;
37223;Laerm;28026;48.562;14.440;2023-11-21T01:07:18;36.99;30.89;52.80;;
37223;Laerm;28026;48.562;14.440;2023-11-21T01:09:51;37.03;31.68;58.89;;
37223;Laerm;28026;48.562;14.440;2023-11-21T01:12:22;37.47;30.89;56.14;;
37223;Laerm;28026;48.562;14.440;2023-11-21T01:14:55;36.94;31.68;51.50;;
37223;Laerm;28026;48.562;14.440;2023-11-21T01:17:26;37.30;31.68;59.52;;
37223;Laerm;28026;48.562;14.440;2023-11-21T01:19:57;39.82;32.35;54.05;;
37223;Laerm;28026;48.562;14.440;2023-11-21T01:22:28;37.12;29.92;52.62;;
37223;Laerm;28026;48.562;14.440;2023-11-21T01:24:59;39.36;31.68;55.25;;
37223;Laerm;28026;48.562;14.440;2023-11-21T01:27:30;37.81;30.89;59.56;;
37223;Laerm;28026;48.562;14.440;2023-11-21T01:30:03;36.83;30.89;52.81;;
37223;Laerm;28026;48.562;14.440;2023-11-21T01:32:34;36.88;31.68;56.59;;
37223;Laerm;28026;48.562;14.440;2023-11-21T01:35:06;36.74;30.89;42.82;;
37223;Laerm;28026;48.562;14.440;2023-11-21T01:37:38;37.17;32.35;56.32;;
37223;Laerm;28026;48.562;14.440;2023-11-21T01:40:10;37.33;32.93;55.98;;
37223;Laerm;28026;48.562;14.440;2023-11-21T01:42:44;37.22;30.89;53.37;;
37223;Laerm;28026;48.562;14.440;2023-11-21T01:45:17;37.17;32.35;48.92;;
37223;Laerm;28026;48.562;14.440;2023-11-21T01:47:48;37.67;31.68;59.00;;
37223;Laerm;28026;48.562;14.440;2023-11-21T01:50:19;37.26;31.68;53.32;;
37223;Laerm;28026;48.562;14.440;2023-11-21T01:52:53;36.96;30.89;48.64;;
37223;Laerm;28026;48.562;14.440;2023-11-21T01:55:25;37.02;31.68;43.34;;
37223;Laerm;28026;48.562;14.440;2023-11-21T01:57:58;36.96;31.68;53.96;;
37223;Laerm;28026;48.562;14.440;2023-11-21T02:00:29;39.85;32.35;56.64;;
37223;Laerm;28026;48.562;14.440;2023-11-21T02:03:00;38.90;32.93;45.27;;
37223;Laerm;28026;48.562;14.440;2023-11-21T02:05:31;37.49;30.89;50.92;;
37223;Laerm;28026;48.562;14.440;2023-11-21T02:08:02;37.28;32.35;56.06;;
37223;Laerm;28026;48.562;14.440;2023-11-21T02:10:34;37.27;29.92;61.68;;
37223;Laerm;28026;48.562;14.440;2023-11-21T02:13:06;36.86;31.68;42.59;;
37223;Laerm;28026;48.562;14.440;2023-11-21T02:15:38;37.01;32.35;47.55;;
37223;Laerm;28026;48.562;14.440;2023-11-21T02:18:09;36.88;31.68;53.05;;
37223;Laerm;28026;48.562;14.440;2023-11-21T02:20:41;37.21;30.89;45.57;;
37223;Laerm;28026;48.562;14.440;2023-11-21T02:23:13;42.37;34.31;59.76;;
37223;Laerm;28026;48.562;14.440;2023-11-21T02:25:45;37.24;32.35;52.23;;
37223;Laerm;28026;48.562;14.440;2023-11-21T02:28:16;37.06;30.89;54.48;;
37223;Laerm;28026;48.562;14.440;2023-11-21T02:30:56;36.70;31.68;51.67;;
37223;Laerm;28026;48.562;14.440;2023-11-21T02:33:28;36.69;31.68;47.59;;
37223;Laerm;28026;48.562;14.440;2023-11-21T02:36:01;37.29;31.68;56.90;;
37223;Laerm;28026;48.562;14.440;2023-11-21T02:38:32;45.72;32.35;58.90;;
37223;Laerm;28026;48.562;14.440;2023-11-21T02:41:03;40.68;31.68;53.06;;
37223;Laerm;28026;48.562;14.440;2023-11-21T02:43:34;36.74;29.92;44.87;;
37223;Laerm;28026;48.562;14.440;2023-11-21T02:46:05;41.14;34.31;53.80;;
37223;Laerm;28026;48.562;14.440;2023-11-21T02:48:36;39.21;32.35;58.96;;
37223;Laerm;28026;48.562;14.440;2023-11-21T02:51:07;37.29;31.68;40.89;;
37223;Laerm;28026;48.562;14.440;2023-11-21T02:53:38;37.91;32.93;53.10;;
37223;Laerm;28026;48.562;14.440;2023-11-21T02:56:09;40.37;33.44;52.05;;
37223;Laerm;28026;48.562;14.440;2023-11-21T02:58:44;42.97;35.36;60.33;;
37223;Laerm;28026;48.562;14.440;2023-11-21T03:01:15;39.15;34.31;61.26;;
37223;Laerm;28026;48.562;14.440;2023-11-21T03:03:46;39.22;33.09;52.76;;
37223;Laerm;28026;48.562;14.440;2023-11-21T03:06:22;38.17;33.44;50.78;;
37223;Laerm;28026;48.562;14.440;2023-11-21T03:08:53;37.61;31.68;53.85;;
37223;Laerm;28026;48.562;14.440;2023-11-21T03:11:24;37.61;32.35;57.58;;
37223;Laerm;28026;48.562;14.440;2023-11-21T03:13:54;38.55;32.93;49.72;;
37223;Laerm;28026;48.562;14.440;2023-11-21T03:16:25;37.43;32.35;46.69;;
37223;Laerm;28026;48.562;14.440;2023-11-21T03:18:56;37.41;31.33;51.14;;
37223;Laerm;28026;48.562;14.440;2023-11-21T03:21:27;37.52;32.35;42.53;;
37223;Laerm;28026;48.562;14.440;2023-11-21T03:23:58;41.04;33.90;58.58;;
37223;Laerm;28026;48.562;14.440;2023-11-21T03:26:30;44.79;36.20;56.87;;
37223;Laerm;28026;48.562;14.440;2023-11-21T03:29:01;38.49;32.93;51.47;;
37223;Laerm;28026;48.562;14.440;2023-11-21T03:31:32;38.61;34.31;52.65;;
37223;Laerm;28026;48.562;14.440;2023-11-21T03:34:03;38.55;33.44;56.20;;
37223;Laerm;28026;48.562;14.440;2023-11-21T03:36:34;38.69;33.44;50.05;;
37223;Laerm;28026;48.562;14.440;2023-11-21T03:39:05;38.36;32.93;43.86;;
37223;Laerm;28026;48.562;14.440;2023-11-21T03:41:36;39.36;32.93;49.64;;
37223;Laerm;28026;48.562;14.440;2023-11-21T03:44:06;37.64;32.93;51.93;;
37223;Laerm;28026;48.562;14.440;2023-11-21T03:46:37;37.87;31.68;54.98;;
37223;Laerm;28026;48.562;14.440;2023-11-21T03:49:08;38.78;32.93;53.07;;
37223;Laerm;28026;48.562;14.440;2023-11-21T03:51:39;38.10;33.44;49.14;;
37223;Laerm;28026;48.562;14.440;2023-11-21T03:54:10;38.03;33.44;45.33;;
37223;Laerm;28026;48.562;14.440;2023-11-21T03:56:41;39.43;33.44;49.64;;
37223;Laerm;28026;48.562;14.440;2023-11-21T03:59:12;43.60;36.45;56.01;;
37223;Laerm;28026;48.562;14.440;2023-11-21T04:01:43;42.07;35.36;51.20;;
37223;Laerm;28026;48.562;14.440;2023-11-21T04:04:14;39.31;33.44;45.86;;
37223;Laerm;28026;48.562;14.440;2023-11-21T04:06:44;39.30;33.44;49.81;;
37223;Laerm;28026;48.562;14.440;2023-11-21T04:09:15;39.70;32.93;49.29;;
37223;Laerm;28026;48.562;14.440;2023-11-21T04:11:46;38.91;34.69;52.32;;
37223;Laerm;28026;48.562;14.440;2023-11-21T04:14:18;40.82;34.31;55.53;;
37223;Laerm;28026;48.562;14.440;2023-11-21T04:16:49;43.03;38.95;49.00;;
37223;Laerm;28026;48.562;14.440;2023-11-21T04:19:20;41.92;37.32;52.40;;
37223;Laerm;28026;48.562;14.440;2023-11-21T04:21:51;40.29;35.36;47.07;;
37223;Laerm;28026;48.562;14.440;2023-11-21T04:24:22;41.41;35.04;48.00;;
37223;Laerm;28026;48.562;14.440;2023-11-21T04:26:53;41.01;34.69;56.43;;
37223;Laerm;28026;48.562;14.440;2023-11-21T04:29:24;42.23;35.59;50.68;;
37223;Laerm;28026;48.562;14.440;2023-11-21T04:31:55;41.79;37.70;51.31;;
37223;Laerm;28026;48.562;14.440;2023-11-21T04:34:26;43.34;37.88;54.28;;
37223;Laerm;28026;48.562;14.440;2023-11-21T04:36:57;43.33;37.12;53.21;;
37223;Laerm;28026;48.562;14.440;2023-11-21T04:39:28;42.25;35.66;49.96;;
37223;Laerm;28026;48.562;14.440;2023-11-21T04:41:59;42.72;36.20;59.64;;
37223;Laerm;28026;48.562;14.440;2023-11-21T04:44:30;42.86;36.91;52.89;;
37223;Laerm;28026;48.562;14.440;2023-11-21T04:47:00;43.71;35.36;58.04;;
37223;Laerm;28026;48.562;14.440;2023-11-21T04:49:32;41.76;34.69;49.03;;
37223;Laerm;28026;48.562;14.440;2023-11-21T04:52:03;41.05;34.69;52.67;;
37223;Laerm;28026;48.562;14.440;2023-11-21T04:54:36;40.30;35.04;51.40;;
37223;Laerm;28026;48.562;14.440;2023-11-21T04:57:07;37.86;32.93;44.87;;
37223;Laerm;28026;48.562;14.440;2023-11-21T04:59:38;38.27;32.93;53.39;;
37223;Laerm;28026;48.562;14.440;2023-11-21T05:02:08;38.12;33.44;56.94;;
37223;Laerm;28026;48.562;14.440;2023-11-21T05:04:39;40.35;35.04;55.25;;
37223;Laerm;28026;48.562;14.440;2023-11-21T05:07:10;43.71;36.20;55.47;;
37223;Laerm;28026;48.562;14.440;2023-11-21T05:09:42;44.02;35.94;58.23;;
37223;Laerm;28026;48.562;14.440;2023-11-21T05:12:14;44.29;38.37;53.30;;
37223;Laerm;28026;48.562;14.440;2023-11-21T05:14:45;42.73;35.04;55.70;;
37223;Laerm;28026;48.562;14.440;2023-11-21T05:17:17;39.36;33.55;59.14;;
37223;Laerm;28026;48.562;14.440;2023-11-21T05:19:48;42.57;35.04;54.64;;
37223;Laerm;28026;48.562;14.440;2023-11-21T05:22:19;43.99;38.95;52.45;;
37223;Laerm;28026;48.562;14.440;2023-11-21T05:24:50;43.23;36.20;60.15;;
37223;Laerm;28026;48.562;14.440;2023-11-21T05:27:21;43.96;37.12;53.33;;
37223;Laerm;28026;48.562;14.440;2023-11-21T05:29:52;41.56;35.94;54.53;;
37223;Laerm;28026;48.562;14.440;2023-11-21T05:32:25;41.43;33.90;48.21;;
37223;Laerm;28026;48.562;14.440;2023-11-21T05:34:55;39.84;35.36;43.81;;
37223;Laerm;28026;48.562;14.440;2023-11-21T05:37:26;40.37;35.01;53.51;;
37223;Laerm;28026;48.562;14.440;2023-11-21T05:39:57;39.60;35.04;48.23;;
37223;Laerm;28026;48.562;14.440;2023-11-21T05:42:28;39.52;35.66;49.97;;
37223;Laerm;28026;48.562;14.440;2023-11-21T05:45:01;43.24;37.70;56.82;;
37223;Laerm;28026;48.562;14.440;2023-11-21T05:47:45;41.36;36.91;46.38;;
37223;Laerm;28026;48.562;14.440;2023-11-21T05:50:17;43.92;38.81;54.99;;
37223;Laerm;28026;48.562;14.440;2023-11-21T05:52:48;44.44;40.23;55.15;;
37223;Laerm;28026;48.562;14.440;2023-11-21T05:55:22;42.38;37.12;53.36;;
37223;Laerm;28026;48.562;14.440;2023-11-21T05:57:56;42.46;35.36;65.42;;
37223;Laerm;28026;48.562;14.440;2023-11-21T06:00:27;41.52;37.52;56.18;;
37223;Laerm;28026;48.562;14.440;2023-11-21T06:02:59;43.57;37.88;52.70;;
37223;Laerm;28026;48.562;14.440;2023-11-21T06:05:30;39.99;35.01;54.44;;
37223;Laerm;28026;48.562;14.440;2023-11-21T06:08:02;44.88;35.94;58.22;;
37223;Laerm;28026;48.562;14.440;2023-11-21T06:10:33;44.02;39.70;54.90;;
37223;Laerm;28026;48.562;14.440;2023-11-21T06:13:04;41.59;35.66;50.37;;
37223;Laerm;28026;48.562;14.440;2023-11-21T06:15:38;41.74;36.91;49.84;;
37223;Laerm;28026;48.562;14.440;2023-11-21T06:18:09;42.49;36.91;53.18;;
37223;Laerm;28026;48.562;14.440;2023-11-21T06:20:41;41.44;36.20;47.18;;
37223;Laerm;28026;48.562;14.440;2023-11-21T06:23:12;42.69;38.52;54.22;;
37223;Laerm;28026;48.562;14.440;2023-11-21T06:25:43;42.77;38.67;49.15;;
37223;Laerm;28026;48.562;14.440;2023-11-21T06:28:14;44.20;37.32;57.35;;
37223;Laerm;28026;48.562;14.440;2023-11-21T06:30:48;41.77;37.70;46.02;;
37223;Laerm;28026;48.562;14.440;2023-11-21T06:33:19;40.61;35.36;55.88;;
37223;Laerm;28026;48.562;14.440;2023-11-21T06:35:52;39.19;32.93;44.62;;
37223;Laerm;28026;48.562;14.440;2023-11-21T06:38:23;40.14;35.36;48.25;;
37223;Laerm;28026;48.562;14.440;2023-11-21T06:40:54;42.68;36.91;54.93;;
37223;Laerm;28026;48.562;14.440;2023-11-21T06:43:25;42.15;36.45;52.18;;
37223;Laerm;28026;48.562;14.440;2023-11-21T06:45:57;41.18;37.32;57.10;;
37223;Laerm;28026;48.562;14.440;2023-11-21T06:48:28;40.58;35.94;48.71;;
37223;Laerm;28026;48.562;14.440;2023-11-21T06:51:00;42.18;37.12;51.28;;
37223;Laerm;28026;48.562;14.440;2023-11-21T06:53:31;40.83;34.31;51.80;;
37223;Laerm;28026;48.562;14.440;2023-11-21T06:56:02;41.81;35.01;69.05;;
37223;Laerm;28026;48.562;14.440;2023-11-21T06:58:34;43.90;36.20;68.48;;
37223;Laerm;28026;48.562;14.440;2023-11-21T07:01:05;40.06;35.94;45.63;;
37223;Laerm;28026;48.562;14.440;2023-11-21T07:03:37;41.35;34.31;56.81;;
37223;Laerm;28026;48.562;14.440;2023-11-21T07:06:08;38.83;35.04;43.86;;
37223;Laerm;28026;48.562;14.440;2023-11-21T07:08:39;39.71;33.44;45.89;;
37223;Laerm;28026;48.562;14.440;2023-11-21T07:11:10;43.50;37.52;56.01;;
37223;Laerm;28026;48.562;14.440;2023-11-21T07:13:41;40.47;36.45;46.82;;
37223;Laerm;28026;48.562;14.440;2023-11-21T07:16:12;42.07;37.70;52.08;;
37223;Laerm;28026;48.562;14.440;2023-11-21T07:18:43;40.26;35.66;50.98;;
37223;Laerm;28026;48.562;14.440;2023-11-21T07:21:14;43.36;37.52;58.13;;
37223;Laerm;28026;48.562;14.440;2023-11-21T07:23:46;41.81;35.36;49.66;;
37223;Laerm;28026;48.562;14.440;2023-11-21T07:26:17;41.00;35.94;51.76;;
37223;Laerm;28026;48.562;14.440;2023-11-21T07:28:48;39.57;35.66;47.12;;
37223;Laerm;28026;48.562;14.440;2023-11-21T07:31:19;40.70;36.45;50.71;;
37223;Laerm;28026;48.562;14.440;2023-11-21T07:33:51;40.29;36.45;57.57;;
37223;Laerm;28026;48.562;14.440;2023-11-21T07:36:22;41.46;36.91;49.53;;
37223;Laerm;28026;48.562;14.440;2023-11-21T07:38:53;42.70;36.91;58.63;;
37223;Laerm;28026;48.562;14.440;2023-11-21T07:41:24;40.45;35.66;45.36;;
37223;Laerm;28026;48.562;14.440;2023-11-21T07:43:55;40.14;35.36;46.66;;
37223;Laerm;28026;48.562;14.440;2023-11-21T07:46:27;40.69;36.45;45.57;;
37223;Laerm;28026;48.562;14.440;2023-11-21T07:48:58;41.72;36.45;47.72;;
37223;Laerm;28026;48.562;14.440;2023-11-21T07:51:29;40.91;35.04;47.18;;
37223;Laerm;28026;48.562;14.440;2023-11-21T07:53:59;42.06;36.91;48.80;;
37223;Laerm;28026;48.562;14.440;2023-11-21T07:56:31;40.52;36.34;45.17;;
37223;Laerm;28026;48.562;14.440;2023-11-21T07:59:02;40.36;36.20;50.62;;
37223;Laerm;28026;48.562;14.440;2023-11-21T08:01:32;39.37;34.69;45.94;;
37223;Laerm;28026;48.562;14.440;2023-11-21T08:04:04;39.13;34.31;44.58;;
37223;Laerm;28026;48.562;14.440;2023-11-21T08:06:34;40.75;36.45;49.44;;
37223;Laerm;28026;48.562;14.440;2023-11-21T08:09:06;43.92;35.94;52.60;;
37223;Laerm;28026;48.562;14.440;2023-11-21T08:11:38;42.91;35.66;53.90;;
37223;Laerm;28026;48.562;14.440;2023-11-21T08:14:09;40.62;35.04;50.46;;
37223;Laerm;28026;48.562;14.440;2023-11-21T08:16:40;39.85;33.90;48.32;;
37223;Laerm;28026;48.562;14.440;2023-11-21T08:19:12;39.96;33.55;53.44;;
37223;Laerm;28026;48.562;14.440;2023-11-21T08:21:43;41.99;34.69;52.54;;
37223;Laerm;28026;48.562;14.440;2023-11-21T08:24:13;41.65;34.69;58.30;;
37223;Laerm;28026;48.562;14.440;2023-11-21T08:26:44;42.70;37.52;53.31;;
37223;Laerm;28026;48.562;14.440;2023-11-21T08:29:15;42.28;35.94;53.89;;
37223;Laerm;28026;48.562;14.440;2023-11-21T08:31:47;46.04;40.71;54.07;;
37223;Laerm;28026;48.562;14.440;2023-11-21T08:34:18;48.57;41.96;58.72;;
37223;Laerm;28026;48.562;14.440;2023-11-21T08:36:49;48.50;40.03;59.01;;
37223;Laerm;28026;48.562;14.440;2023-11-21T08:39:22;47.95;40.33;59.04;;
37223;Laerm;28026;48.562;14.440;2023-11-21T08:41:54;48.17;40.53;58.58;;
37223;Laerm;28026;48.562;14.440;2023-11-21T08:44:25;50.38;40.53;59.79;;
37223;Laerm;28026;48.562;14.440;2023-11-21T08:46:56;50.28;41.82;60.51;;
37223;Laerm;28026;48.562;14.440;2023-11-21T08:49:27;51.15;41.53;60.81;;
37223;Laerm;28026;48.562;14.440;2023-11-21T08:52:00;50.18;39.70;60.69;;
37223;Laerm;28026;48.562;14.440;2023-11-21T08:54:31;47.45;40.33;59.34;;
37223;Laerm;28026;48.562;14.440;2023-11-21T08:57:02;45.36;37.52;57.47;;
37223;Laerm;28026;48.562;14.440;2023-11-21T08:59:33;43.53;34.31;58.37;;
37223;Laerm;28026;48.562;14.440;2023-11-21T09:02:04;42.89;35.36;58.18;;
37223;Laerm;28026;48.562;14.440;2023-11-21T09:04:35;46.39;37.12;60.84;;
37223;Laerm;28026;48.562;14.440;2023-11-21T09:07:06;44.39;36.69;58.96;;
37223;Laerm;28026;48.562;14.440;2023-11-21T09:09:37;43.41;35.66;57.43;;
37223;Laerm;28026;48.562;14.440;2023-11-21T09:12:08;43.61;35.36;57.74;;
37223;Laerm;28026;48.562;14.440;2023-11-21T09:14:43;43.15;32.93;55.79;;
37223;Laerm;28026;48.562;14.440;2023-11-21T09:17:14;44.15;38.67;55.29;;
37223;Laerm;28026;48.562;14.440;2023-11-21T09:19:45;43.52;35.66;56.67;;
37223;Laerm;28026;48.562;14.440;2023-11-21T09:22:20;44.41;37.12;56.73;;
37223;Laerm;28026;48.562;14.440;2023-11-21T09:24:51;44.37;34.69;58.76;;
37223;Laerm;28026;48.562;14.440;2023-11-21T09:27:22;40.11;32.35;63.14;;
37223;Laerm;28026;48.562;14.440;2023-11-21T09:29:53;42.30;35.36;63.48;;
37223;Laerm;28026;48.562;14.440;2023-11-21T09:32:24;43.19;36.69;63.21;;
37223;Laerm;28026;48.562;14.440;2023-11-21T09:34:55;42.14;34.69;60.21;;
37223;Laerm;28026;48.562;14.440;2023-11-21T09:37:28;40.46;34.31;54.92;;
37223;Laerm;28026;48.562;14.440;2023-11-21T09:39:59;44.90;36.20;57.55;;
37223;Laerm;28026;48.562;14.440;2023-11-21T09:42:36;42.61;35.66;55.91;;
37223;Laerm;28026;48.562;14.440;2023-11-21T09:45:28;44.55;35.04;62.65;;
37223;Laerm;28026;48.562;14.440;2023-11-21T09:48:02;41.04;35.94;54.66;;
37223;Laerm;28026;48.562;14.440;2023-11-21T09:50:36;44.45;35.94;54.96;;
37223;Laerm;28026;48.562;14.440;2023-11-21T09:53:20;42.55;36.45;53.41;;
37223;Laerm;28026;48.562;14.440;2023-11-21T09:55:53;44.02;38.37;55.85;;
37223;Laerm;28026;48.562;14.440;2023-11-21T09:58:25;40.10;35.36;47.95;;
37223;Laerm;28026;48.562;14.440;2023-11-21T10:00:59;39.96;34.31;47.44;;
37223;Laerm;28026;48.562;14.440;2023-11-21T10:03:36;47.61;36.69;62.23;;
37223;Laerm;28026;48.562;14.440;2023-11-21T10:06:12;43.70;37.70;52.45;;
37223;Laerm;28026;48.562;14.440;2023-11-21T10:08:46;43.78;37.12;56.51;;
37223;Laerm;28026;48.562;14.440;2023-11-21T10:11:19;48.05;35.04;62.81;;
37223;Laerm;28026;48.562;14.440;2023-11-21T10:13:56;46.69;39.46;61.18;;
37223;Laerm;28026;48.562;14.440;2023-11-21T10:16:31;41.33;34.69;49.49;;
37223;Laerm;28026;48.562;14.440;2023-11-21T10:19:04;43.78;35.66;55.71;;
37223;Laerm;28026;48.562;14.440;2023-11-21T10:21:39;43.44;34.69;57.35;;
37223;Laerm;28026;48.562;14.440;2023-11-21T10:24:10;44.63;37.12;55.28;;
37223;Laerm;28026;48.562;14.440;2023-11-21T10:26:43;45.64;39.34;59.91;;
37223;Laerm;28026;48.562;14.440;2023-11-21T10:29:14;45.47;36.69;58.02;;
37223;Laerm;28026;48.562;14.440;2023-11-21T10:31:52;41.80;33.44;53.81;;
37223;Laerm;28026;48.562;14.440;2023-11-21T10:34:25;40.92;32.35;55.42;;
37223;Laerm;28026;48.562;14.440;2023-11-21T10:36:58;39.75;32.35;53.48;;
37223;Laerm;28026;48.562;14.440;2023-11-21T10:39:29;41.91;32.93;55.39;;
37223;Laerm;28026;48.562;14.440;2023-11-21T10:42:01;43.82;35.66;54.95;;
37223;Laerm;28026;48.562;14.440;2023-11-21T10:44:32;43.70;35.04;56.81;;
37223;Laerm;28026;48.562;14.440;2023-11-21T10:47:04;40.77;34.31;45.75;;
37223;Laerm;28026;48.562;14.440;2023-11-21T10:49:37;39.74;32.35;46.23;;
37223;Laerm;28026;48.562;14.440;2023-11-21T10:52:08;41.53;34.31;60.80;;
37223;Laerm;28026;48.562;14.440;2023-11-21T10:54:42;46.33;38.37;57.25;;
37223;Laerm;28026;48.562;14.440;2023-11-21T10:57:20;43.15;35.66;54.33;;
37223;Laerm;28026;48.562;14.440;2023-11-21T10:59:55;43.40;33.90;55.99;;
37223;Laerm;28026;48.562;14.440;2023-11-21T11:02:27;47.81;40.71;66.05;;
37223;Laerm;28026;48.562;14.440;2023-11-21T11:04:59;41.20;30.89;51.80;;
37223;Laerm;28026;48.562;14.440;2023-11-21T11:07:35;39.90;32.35;55.67;;
37223;Laerm;28026;48.562;14.440;2023-11-21T11:10:09;38.88;32.93;45.70;;
37223;Laerm;28026;48.562;14.440;2023-11-21T11:12:47;40.46;33.44;47.43;;
37223;Laerm;28026;48.562;14.440;2023-11-21T11:15:19;40.16;32.35;48.08;;
37223;Laerm;28026;48.562;14.440;2023-11-21T11:17:52;43.23;33.90;53.84;;
37223;Laerm;28026;48.562;14.440;2023-11-21T11:20:31;44.15;35.94;58.81;;
37223;Laerm;28026;48.562;14.440;2023-11-21T11:30:44;39.75;32.93;44.15;;
37223;Laerm;28026;48.562;14.440;2023-11-21T11:33:50;41.75;34.31;51.53;;
37223;Laerm;28026;48.562;14.440;2023-11-21T11:36:48;40.66;31.68;65.25;;
37223;Laerm;28026;48.562;14.440;2023-11-21T11:39:33;41.95;34.31;52.40;;
37223;Laerm;28026;48.562;14.440;2023-11-21T11:42:12;41.82;33.44;49.25;;
37223;Laerm;28026;48.562;14.440;2023-11-21T11:47:32;41.81;35.36;49.63;;
37223;Laerm;28026;48.562;14.440;2023-11-21T11:50:11;41.23;34.69;46.13;;
37223;Laerm;28026;48.562;14.440;2023-11-21T11:52:52;41.86;36.20;62.56;;
37223;Laerm;28026;48.562;14.440;2023-11-21T11:55:25;40.63;35.04;45.23;;
37223;Laerm;28026;48.562;14.440;2023-11-21T11:57:56;39.26;32.93;49.62;;
37223;Laerm;28026;48.562;14.440;2023-11-21T12:03:05;40.35;33.44;51.87;;
37223;Laerm;28026;48.562;14.440;2023-11-21T12:05:37;41.21;33.90;46.07;;
37223;Laerm;28026;48.562;14.440;2023-11-21T12:08:16;41.75;33.90;48.49;;
37223;Laerm;28026;48.562;14.440;2023-11-21T12:10:47;44.74;32.35;60.73;;
37223;Laerm;28026;48.562;14.440;2023-11-21T12:13:20;42.46;35.94;48.28;;
37223;Laerm;28026;48.562;14.440;2023-11-21T12:15:51;38.40;33.90;41.82;;
37223;Laerm;28026;48.562;14.440;2023-11-21T12:18:22;41.70;31.68;48.73;;
37223;Laerm;28026;48.562;14.440;2023-11-21T12:20:54;40.03;33.90;45.11;;
37223;Laerm;28026;48.562;14.440;2023-11-21T12:23:25;38.03;30.89;43.49;;
37223;Laerm;28026;48.562;14.440;2023-11-21T12:25:55;42.78;32.93;48.00;;
37223;Laerm;28026;48.562;14.440;2023-11-21T12:28:27;39.54;33.44;44.19;;
37223;Laerm;28026;48.562;14.440;2023-11-21T12:30:58;39.47;33.44;52.28;;
37223;Laerm;28026;48.562;14.440;2023-11-21T12:33:29;37.67;31.68;41.89;;
37223;Laerm;28026;48.562;14.440;2023-11-21T12:36:00;38.02;32.93;43.72;;
37223;Laerm;28026;48.562;14.440;2023-11-21T12:38:35;45.89;37.70;56.62;;
37223;Laerm;28026;48.562;14.440;2023-11-21T12:41:06;40.96;34.31;45.39;;
37223;Laerm;28026;48.562;14.440;2023-11-21T12:43:39;37.98;33.44;42.88;;
37223;Laerm;28026;48.562;14.440;2023-11-21T12:46:11;38.47;32.93;51.53;;
37223;Laerm;28026;48.562;14.440;2023-11-21T12:48:45;42.13;35.66;48.02;;
37223;Laerm;28026;48.562;14.440;2023-11-21T12:51:19;41.43;33.90;49.60;;
37223;Laerm;28026;48.562;14.440;2023-11-21T12:53:51;44.91;34.31;60.58;;
37223;Laerm;28026;48.562;14.440;2023-11-21T12:56:23;44.41;33.90;61.17;;
37223;Laerm;28026;48.562;14.440;2023-11-21T12:58:54;40.82;35.66;47.84;;
37223;Laerm;28026;48.562;14.440;2023-11-21T13:01:27;48.08;38.18;65.70;;
37223;Laerm;28026;48.562;14.440;2023-11-21T13:04:00;38.82;33.44;46.64;;
37223;Laerm;28026;48.562;14.440;2023-11-21T13:06:32;38.73;33.90;43.54;;
37223;Laerm;28026;48.562;14.440;2023-11-21T13:09:09;40.93;36.45;45.20;;
37223;Laerm;28026;48.562;14.440;2023-11-21T13:11:41;42.76;34.69;56.98;;
37223;Laerm;28026;48.562;14.440;2023-11-21T13:14:12;40.59;35.04;45.36;;
37223;Laerm;28026;48.562;14.440;2023-11-21T13:16:43;39.44;34.69;42.93;;
37223;Laerm;28026;48.562;14.440;2023-11-21T13:19:16;44.01;35.36;58.27;;
37223;Laerm;28026;48.562;14.440;2023-11-21T13:21:47;39.69;34.69;45.01;;
37223;Laerm;28026;48.562;14.440;2023-11-21T13:24:18;38.36;33.44;44.39;;
37223;Laerm;28026;48.562;14.440;2023-11-21T13:26:49;39.31;33.90;50.70;;
37223;Laerm;28026;48.562;14.440;2023-11-21T13:29:20;38.10;32.35;42.71;;
37223;Laerm;28026;48.562;14.440;2023-11-21T13:31:51;37.81;32.35;41.53;;
37223;Laerm;28026;48.562;14.440;2023-11-21T13:34:23;42.58;32.35;53.34;;
37223;Laerm;28026;48.562;14.440;2023-11-21T13:36:58;42.56;37.70;46.52;;
37223;Laerm;28026;48.562;14.440;2023-11-21T13:39:31;41.67;33.44;51.03;;
37223;Laerm;28026;48.562;14.440;2023-11-21T13:42:03;39.03;31.68;44.58;;
37223;Laerm;28026;48.562;14.440;2023-11-21T13:44:34;39.62;31.68;50.32;;
37223;Laerm;28026;48.562;14.440;2023-11-21T13:47:08;40.76;32.93;45.75;;
37223;Laerm;28026;48.562;14.440;2023-11-21T13:49:39;41.03;35.66;53.15;;
37223;Laerm;28026;48.562;14.440;2023-11-21T13:52:12;38.30;32.93;41.89;;
37223;Laerm;28026;48.562;14.440;2023-11-21T13:54:47;38.92;33.44;44.43;;
37223;Laerm;28026;48.562;14.440;2023-11-21T13:57:18;40.07;32.93;52.47;;
37223;Laerm;28026;48.562;14.440;2023-11-21T13:59:50;43.09;35.04;54.38;;
37223;Laerm;28026;48.562;14.440;2023-11-21T14:02:22;39.30;32.93;43.77;;
37223;Laerm;28026;48.562;14.440;2023-11-21T14:05:03;40.39;33.44;48.43;;
37223;Laerm;28026;48.562;14.440;2023-11-21T14:07:39;41.79;35.94;47.48;;
37223;Laerm;28026;48.562;14.440;2023-11-21T14:10:18;38.77;32.93;42.03;;
37223;Laerm;28026;48.562;14.440;2023-11-21T14:12:52;39.54;33.90;43.72;;